Vendome Street — A8YI6 — position and weather

sailwx.info

Track history (hours):
 
Tides and Currents Weather Stations Pressure Air Temp Water Temp Dewpoint Dewpoint Depression Visibility Wind Speed Wind Dir Waves Ship Positions

Vendome Street

Last reported at 2017-Jan-19 20:24 UTC. Time now 2017-Jan-21 04:28 UTC.
Position N 29°20' W 094°40'.

Length 177 m; draft 11.4 m.

Type: Ship. MMSI: 636015064.

Date/timePositionNaut miles runAvg speedWind from/ knotsBaromVisibWave heightAir tempDewpointWater temp
2017-Jan-19 20:24N 29°20' W 094°40'10 9.2
2017-Jan-19 19:20N 29°25' W 094°50'810.2
2017-Jan-19 18:33N 29°32' W 094°54'9 9.3
2017-Jan-19 17:33N 29°40' W 094°59'7 7.2
2017-Jan-19 16:33N 29°46' W 095°04'5 5.0
2017-Jan-19 15:33N 29°45' W 095°10'1 1.0
2017-Jan-19 14:30N 29°45' W 095°11'0 0.0
2017-Jan-19 13:30N 29°45' W 095°11'0 0.0
2017-Jan-19 12:30N 29°45' W 095°11'0 0.0
2017-Jan-19 11:24N 29°45' W 095°11'0 0.0
2017-Jan-19 10:24N 29°45' W 095°11'0 0.0
2017-Jan-19 09:30N 29°45' W 095°11'0 0.0
2017-Jan-19 07:24N 29°45' W 095°11'0 0.0
2017-Jan-19 06:27N 29°45' W 095°11'  
2017-Jan-16 14:33N 29°45' W 095°11'1 0.6
2017-Jan-16 13:33N 29°45' W 095°11'7 6.0
2017-Jan-16 12:29N 29°44' W 095°03'8 8.5
2017-Jan-16 11:33N 29°38' W 094°58'1211.7
2017-Jan-16 10:33N 29°28' W 094°51'  
2017-Jan-13 13:28N 29°18' W 094°34'0 0.0
2017-Jan-13 12:31N 29°18' W 094°34'  
Track history (hours):
 
Tides and Currents Weather Stations Pressure Air Temp Water Temp Dewpoint Dewpoint Depression Visibility Wind Speed Wind Dir Waves Ship Positions

Vendome Street

Last reported at 2017-Jan-19 20:24 UTC. Time now 2017-Jan-21 04:28 UTC.
Position N 29°20' W 094°40'.

Length 177 m; draft 11.4 m.

Type: Ship. MMSI: 636015064.

Date/timePositionNaut miles runAvg speedWind from/ knotsBaromVisibWave heightAir tempDewpointWater temp
2017-Jan-19 20:24N 29°20' W 094°40'10 9.2
2017-Jan-19 19:20N 29°25' W 094°50'810.2
2017-Jan-19 18:33N 29°32' W 094°54'9 9.3
2017-Jan-19 17:33N 29°40' W 094°59'7 7.2
2017-Jan-19 16:33N 29°46' W 095°04'5 5.0
2017-Jan-19 15:33N 29°45' W 095°10'1 1.0
2017-Jan-19 14:30N 29°45' W 095°11'0 0.0
2017-Jan-19 13:30N 29°45' W 095°11'0 0.0
2017-Jan-19 12:30N 29°45' W 095°11'0 0.0
2017-Jan-19 11:24N 29°45' W 095°11'0 0.0
2017-Jan-19 10:24N 29°45' W 095°11'0 0.0
2017-Jan-19 09:30N 29°45' W 095°11'0 0.0
2017-Jan-19 07:24N 29°45' W 095°11'0 0.0
2017-Jan-19 06:27N 29°45' W 095°11'  
2017-Jan-16 14:33N 29°45' W 095°11'1 0.6
2017-Jan-16 13:33N 29°45' W 095°11'7 6.0
2017-Jan-16 12:29N 29°44' W 095°03'8 8.5
2017-Jan-16 11:33N 29°38' W 094°58'1211.7
2017-Jan-16 10:33N 29°28' W 094°51'  
2017-Jan-13 13:28N 29°18' W 094°34'0 0.0
2017-Jan-13 12:31N 29°18' W 094°34'  

Dump ship's entire track history